This is the latest recevied weather packets stored in our database for station/object W5HKR. If no packets are shown the sender has not sent any weather packets the latest 10 day(s).
| Time | Temp. | Humidity | Pressure | Rain* | Wind** | Luminosity | Snow |
|---|---|---|---|---|---|---|---|
| 1777871309 | 18.89° C | 71% | 988.8 hPa | 0 mm | - | - | - |
| 1777871011 | 18.89° C | 70% | 988.8 hPa | 0 mm | - | - | - |
| 1777870711 | 18.33° C | 91% | 990.6 hPa | 0 mm | - | - | - |
| 1777870679 | 18.33° C | 91% | 990.6 hPa | 0 mm | - | - | - |
| 1777870410 | 18.33° C | 91% | 990.6 hPa | 0 mm | - | - | - |
| 1777870109 | 18.33° C | 91% | 990.6 hPa | 0 mm | - | - | - |
| 1777869811 | 18.33° C | 91% | 990.6 hPa | 0 mm | - | - | - |
| 1777869600 | 18.89° C | 69% | 989.2 hPa | 0 mm | - | - | - |
| 1777869510 | 18.33° C | 91% | 990.6 hPa | 0 mm | - | - | - |
| 1777868909 | 19.44° C | 68% | 989.6 hPa | 0 mm | - | - | - |
| 1777868609 | 18.33° C | 91% | 990.6 hPa | 0 mm | - | - | - |
| 1777868520 | 19.44° C | 68% | 989.5 hPa | 0 mm | - | - | - |
| 1777868310 | 19.44° C | 68% | 988.9 hPa | 0 mm | - | - | - |
| 1777868010 | 19.44° C | 67% | 989.4 hPa | 0 mm | - | - | - |
| 1777867709 | 19.44° C | 67% | 989.2 hPa | 0 mm | - | - | - |
| 1777867440 | 18.33° C | 91% | 990.6 hPa | 0 mm | - | - | - |
| 1777867109 | 19.44° C | 67% | 989.3 hPa | 0 mm | - | - | - |
| 1777866811 | 18.33° C | 91% | 990.6 hPa | 0 mm | - | - | - |
| 1777866509 | 19.44° C | 66% | 989.5 hPa | 0 mm | - | - | - |
| 1777866359 | 18.33° C | 91% | 990.6 hPa | 0 mm | - | - | - |
| 1777866210 | 19.44° C | 66% | 989.4 hPa | 0 mm | - | - | - |
| 1777865910 | 19.44° C | 65% | 989.5 hPa | 0 mm | - | - | - |
| 1777865610 | 19.44° C | 66% | 989.4 hPa | 0 mm | - | - | - |
| 1777865282 | 18.33° C | 91% | 990.6 hPa | 0 mm | - | - | - |
| 1777865009 | 19.44° C | 64% | 989.2 hPa | 0 mm | - | - | - |
* Rain latest hour (hover to see other rain measurements)
** Current wind speed in m/s (hover to see current wind gust speed)